createdAt,value
2023-02-14T00:01:10.440Z,98134.16
2023-02-14T00:03:38.151Z,98138.31
2023-02-14T00:06:07.328Z,98122.31
2023-02-14T00:08:34.910Z,98130.66
2023-02-14T00:11:02.763Z,98132.31
2023-02-14T00:13:30.498Z,98129.59
2023-02-14T00:15:59.570Z,98131.47
2023-02-14T00:18:27.159Z,98126.06
2023-02-14T00:21:00.402Z,98137.88
2023-02-14T00:23:28.121Z,98132.72
2023-02-14T00:25:55.729Z,98131.88
2023-02-14T00:28:23.249Z,98141.81
2023-02-14T00:30:50.955Z,98144.75
2023-02-14T00:33:19.999Z,98143.28
2023-02-14T00:35:47.590Z,98144.31
2023-02-14T00:38:15.618Z,98145.97
2023-02-14T00:40:43.328Z,98144.94
2023-02-14T00:43:10.937Z,98143.09
2023-02-14T00:45:38.589Z,98142.25
2023-02-14T00:48:06.251Z,98139.56
2023-02-14T00:50:35.292Z,98140.59
2023-02-14T00:53:02.863Z,98148.69
2023-02-14T00:55:30.510Z,98151.38
2023-02-14T00:57:58.129Z,98146.84
2023-02-14T01:00:25.786Z,98147.63
2023-02-14T01:02:56.163Z,98148.06
2023-02-14T01:05:23.721Z,98161.13
2023-02-14T01:07:52.772Z,98158.44
2023-02-14T01:10:20.634Z,98157.81
2023-02-14T01:12:48.192Z,98162.16
2023-02-14T01:15:15.800Z,98163.00
2023-02-14T01:17:44.864Z,98165.91
2023-02-14T01:20:12.685Z,98163.63
2023-02-14T01:22:40.740Z,98164.47
2023-02-14T01:25:09.821Z,98163.47
2023-02-14T01:27:37.740Z,98167.16
2023-02-14T01:30:06.433Z,98169.88
2023-02-14T01:32:34.816Z,98171.91
2023-02-14T01:35:02.323Z,98163.81
2023-02-14T01:37:30.809Z,98171.09
2023-02-14T01:39:58.440Z,98171.91
2023-02-14T01:42:27.397Z,98173.38
2023-02-14T01:45:00.747Z,98174.25
2023-02-14T01:47:31.029Z,98174.03
2023-02-14T01:50:03.258Z,98179.44
2023-02-14T01:52:35.020Z,98184.63
2023-02-14T01:55:06.838Z,98187.31
2023-02-14T01:57:39.861Z,98191.88
2023-02-14T02:00:09.311Z,98197.28
2023-02-14T02:02:40.894Z,98195.63
2023-02-14T02:05:08.883Z,98202.91
2023-02-14T02:07:37.204Z,98199.16
2023-02-14T02:10:08.147Z,98203.50
2023-02-14T02:12:37.855Z,98206.41
2023-02-14T02:15:05.961Z,98208.28
2023-02-14T02:17:45.813Z,98205.59
2023-02-14T02:20:55.917Z,98212.03
2023-02-14T02:24:02.984Z,98207.63
2023-02-14T02:27:08.149Z,98215.72
2023-02-14T02:30:24.395Z,98208.66
2023-02-14T02:33:27.340Z,98216.13
2023-02-14T02:36:23.414Z,98211.56
2023-02-14T02:39:05.950Z,98215.72
2023-02-14T02:41:46.396Z,98214.03
2023-02-14T02:44:18.041Z,98222.56
2023-02-14T02:46:55.917Z,98223.19
2023-02-14T02:49:41.281Z,98218.81
2023-02-14T02:52:16.784Z,98226.09
2023-02-14T02:54:54.166Z,98223.19
2023-02-14T02:57:27.175Z,98233.97
2023-02-14T02:59:57.788Z,98227.75
2023-02-14T03:02:31.253Z,98236.03
2023-02-14T03:05:05.732Z,98226.91
2023-02-14T03:07:37.702Z,98219.03
2023-02-14T03:10:12.191Z,98228.56
2023-02-14T03:13:04.542Z,98228.13
2023-02-14T03:15:47.276Z,98238.72
2023-02-14T03:18:37.505Z,98242.25
2023-02-14T03:21:15.353Z,98246.22
2023-02-14T03:23:51.989Z,98247.25
2023-02-14T03:26:26.329Z,98245.16
2023-02-14T03:29:02.166Z,98243.09
2023-02-14T03:31:36.204Z,98247.63
2023-02-14T03:34:10.673Z,98238.53
2023-02-14T03:36:42.941Z,98243.09
2023-02-14T03:39:16.645Z,98249.34
2023-02-14T03:41:49.417Z,98239.34
2023-02-14T03:44:21.252Z,98246.41
2023-02-14T03:46:53.708Z,98249.13
2023-02-14T03:49:29.185Z,98243.94
2023-02-14T03:52:01.301Z,98242.06
2023-02-14T03:54:32.004Z,98247.25
2023-02-14T03:57:07.599Z,98256.00
2023-02-14T03:59:36.271Z,98251.44
2023-02-14T04:02:08.749Z,98249.78
2023-02-14T04:04:40.470Z,98247.72
2023-02-14T04:07:12.806Z,98246.06
2023-02-14T04:09:42.570Z,98251.44
2023-02-14T04:12:10.061Z,98244.41
2023-02-14T04:14:38.351Z,98251.44
2023-02-14T04:17:06.043Z,98251.63
2023-02-14T04:19:33.540Z,98256.84
2023-02-14T04:22:01.129Z,98272.00
2023-02-14T04:24:28.822Z,98273.84
2023-02-14T04:26:57.841Z,98274.88
2023-02-14T04:29:25.453Z,98273.03
2023-02-14T04:31:53.215Z,98272.56
2023-02-14T04:34:20.878Z,98276.09
2023-02-14T04:36:48.425Z,98271.31
2023-02-14T04:39:15.990Z,98268.00
2023-02-14T04:41:44.098Z,98274.25
2023-02-14T04:44:13.177Z,98278.78
2023-02-14T04:46:40.779Z,98270.25
2023-02-14T04:49:08.746Z,98272.69
2023-02-14T04:51:36.285Z,98281.25
2023-02-14T04:54:03.982Z,98277.53
2023-02-14T04:56:31.576Z,98279.00
2023-02-14T04:58:59.709Z,98281.47
2023-02-14T05:01:28.918Z,98276.09
2023-02-14T05:03:56.595Z,98272.38
2023-02-14T05:06:24.199Z,98277.59
2023-02-14T05:08:51.812Z,98282.78
2023-02-14T05:11:19.327Z,98283.81
2023-02-14T05:13:46.929Z,98285.81
2023-02-14T05:16:14.488Z,98275.09
2023-02-14T05:18:43.565Z,98286.53
2023-02-14T05:21:11.232Z,98280.47
2023-02-14T05:23:39.350Z,98287.72
2023-02-14T05:26:07.120Z,98283.81
2023-02-14T05:28:34.662Z,98273.03
2023-02-14T05:31:02.598Z,98277.97
2023-02-14T05:33:30.615Z,98280.88
2023-02-14T05:36:00.831Z,98277.72
2023-02-14T05:38:28.505Z,98278.78
2023-02-14T05:40:56.055Z,98288.81
2023-02-14T05:43:23.608Z,98285.91
2023-02-14T05:45:51.246Z,98284.03
2023-02-14T05:48:18.837Z,98290.47
2023-02-14T05:50:46.624Z,98290.09
2023-02-14T05:53:15.958Z,98287.72
2023-02-14T05:55:43.584Z,98292.25
2023-02-14T05:58:11.494Z,98292.09
2023-02-14T06:00:41.171Z,98290.03
2023-02-14T06:03:09.241Z,98296.84
2023-02-14T06:05:36.852Z,98285.44
2023-02-14T06:08:04.544Z,98282.34
2023-02-14T06:10:33.744Z,98284.44
2023-02-14T06:13:01.693Z,98289.22
2023-02-14T06:15:29.405Z,98281.75
2023-02-14T06:17:57.832Z,98293.38
2023-02-14T06:20:25.694Z,98295.91
2023-02-14T06:22:53.766Z,98297.19
2023-02-14T06:25:22.034Z,98292.41
2023-02-14T06:27:51.522Z,98295.31
2023-02-14T06:30:19.359Z,98299.19
2023-02-14T06:32:47.195Z,98302.31
2023-02-14T06:35:15.331Z,98289.66
2023-02-14T06:37:42.924Z,98292.38
2023-02-14T06:40:11.742Z,98295.50
2023-02-14T06:42:39.360Z,98303.41
2023-02-14T06:45:09.601Z,98309.59
2023-02-14T06:47:37.374Z,98303.41
2023-02-14T06:50:05.636Z,98309.84
2023-02-14T06:52:33.505Z,98303.41
2023-02-14T06:55:01.215Z,98311.28
2023-02-14T06:57:28.773Z,98305.44
2023-02-14T06:59:56.291Z,98300.09
2023-02-14T07:02:25.359Z,98303.00
2023-02-14T07:04:52.969Z,98311.28
2023-02-14T07:07:20.520Z,98305.25
2023-02-14T07:09:48.605Z,98308.63
2023-02-14T07:12:16.202Z,98308.81
2023-02-14T07:14:43.714Z,98307.16
2023-02-14T07:17:11.393Z,98315.00
2023-02-14T07:19:40.368Z,98311.50
2023-02-14T07:22:07.918Z,98307.16
2023-02-14T07:24:35.442Z,98307.38
2023-02-14T07:27:03.088Z,98308.44
2023-02-14T07:29:30.943Z,98304.25
2023-02-14T07:31:58.677Z,98301.34
2023-02-14T07:34:26.257Z,98310.47
2023-02-14T07:36:55.306Z,98312.78
2023-02-14T07:39:22.930Z,98311.50
2023-02-14T07:41:50.546Z,98319.22
2023-02-14T07:44:20.243Z,98312.56
2023-02-14T07:46:47.858Z,98308.38
2023-02-14T07:49:15.542Z,98310.28
2023-02-14T07:51:43.153Z,98311.31
2023-02-14T07:54:12.134Z,98316.09
2023-02-14T07:56:39.676Z,98308.38
2023-02-14T07:59:07.266Z,98311.06
2023-02-14T08:01:34.892Z,98314.59
2023-02-14T08:04:02.468Z,98314.38
2023-02-14T08:06:30.093Z,98314.16
2023-02-14T08:08:57.693Z,98307.16
2023-02-14T08:11:27.462Z,98310.03
2023-02-14T08:13:54.629Z,98307.78
2023-02-14T08:16:22.251Z,98310.88
2023-02-14T08:18:49.840Z,98313.38
2023-02-14T08:21:17.470Z,98312.09
2023-02-14T08:23:47.441Z,98308.56
2023-02-14T08:26:15.640Z,98303.59
2023-02-14T08:28:44.954Z,98304.69
2023-02-14T08:31:12.634Z,98300.53
2023-02-14T08:33:40.259Z,98296.78
2023-02-14T08:36:08.038Z,98302.19
2023-02-14T08:38:35.680Z,98305.91
2023-02-14T08:41:07.494Z,98305.06
2023-02-14T08:43:36.011Z,98296.38
2023-02-14T08:46:05.274Z,98305.28
2023-02-14T08:48:34.726Z,98303.41
2023-02-14T08:51:06.874Z,98306.72
2023-02-14T08:53:34.563Z,98296.97
2023-02-14T08:56:06.974Z,98293.47
2023-02-14T08:58:34.700Z,98298.84
2023-02-14T09:01:02.925Z,98296.16
2023-02-14T09:03:32.265Z,98288.06
2023-02-14T09:06:03.805Z,98300.94
2023-02-14T09:08:31.372Z,98304.25
2023-02-14T09:10:59.260Z,98298.44
2023-02-14T09:13:27.054Z,98297.16
2023-02-14T09:15:54.812Z,98291.78
2023-02-14T09:18:22.530Z,98293.69
2023-02-14T09:20:51.597Z,98290.97
2023-02-14T09:23:19.077Z,98289.09
2023-02-14T09:25:46.881Z,98293.47
2023-02-14T09:28:14.659Z,98296.59
2023-02-14T09:30:42.350Z,98284.53
2023-02-14T09:33:10.274Z,98290.56
2023-02-14T09:35:37.832Z,98289.94
2023-02-14T09:38:07.729Z,98279.97
2023-02-14T09:40:35.261Z,98281.41
2023-02-14T09:43:10.064Z,98282.66
2023-02-14T09:45:39.018Z,98282.66
2023-02-14T09:48:12.874Z,98278.91
2023-02-14T09:50:46.146Z,98278.28
2023-02-14T09:53:22.857Z,98274.75
2023-02-14T09:55:56.309Z,98275.38
2023-02-14T09:58:32.016Z,98281.81
2023-02-14T10:01:07.532Z,98272.09
2023-02-14T10:04:01.067Z,98278.91
2023-02-14T10:06:56.414Z,98274.97
2023-02-14T10:09:45.997Z,98270.19
2023-02-14T10:12:21.333Z,98268.97
2023-02-14T10:14:50.560Z,98261.69
2023-02-14T10:17:22.310Z,98259.00
2023-02-14T10:19:56.400Z,98260.22
2023-02-14T10:22:31.539Z,98268.31
2023-02-14T10:25:06.209Z,98268.13
2023-02-14T10:27:36.799Z,98273.50
2023-02-14T10:30:13.920Z,98268.75
2023-02-14T10:32:47.047Z,98268.78
2023-02-14T10:35:30.145Z,98269.38
2023-02-14T10:38:08.506Z,98265.63
2023-02-14T10:40:47.772Z,98266.06
2023-02-14T10:43:24.367Z,98259.19
2023-02-14T10:45:59.456Z,98258.56
2023-02-14T10:48:37.100Z,98255.81
2023-02-14T10:51:13.041Z,98252.13
2023-02-14T10:53:49.467Z,98257.75
2023-02-14T10:56:21.885Z,98256.72
2023-02-14T10:58:52.803Z,98255.25
2023-02-14T11:01:20.542Z,98255.81
2023-02-14T11:03:55.115Z,98250.06
2023-02-14T11:06:22.762Z,98258.56
2023-02-14T11:08:50.299Z,98259.63
2023-02-14T11:11:25.022Z,98263.16
2023-02-14T11:13:52.858Z,98258.38
2023-02-14T11:16:30.540Z,98268.94
2023-02-14T11:19:10.650Z,98267.53
2023-02-14T11:21:39.637Z,98259.81
2023-02-14T11:24:18.271Z,98262.75
2023-02-14T11:26:50.394Z,98260.66
2023-02-14T11:29:24.798Z,98259.81
2023-02-14T11:31:52.571Z,98272.28
2023-02-14T11:34:30.020Z,98266.44
2023-02-14T11:36:57.845Z,98266.66
2023-02-14T11:39:30.485Z,98265.00
2023-02-14T11:42:01.650Z,98267.69
2023-02-14T11:44:30.398Z,98277.69
2023-02-14T11:47:16.151Z,98276.03
2023-02-14T11:49:55.087Z,98276.03
2023-02-14T11:52:22.944Z,98274.34
2023-02-14T11:54:51.121Z,98271.03
2023-02-14T11:57:23.836Z,98267.91
2023-02-14T11:59:53.659Z,98263.56
2023-02-14T12:02:25.589Z,98263.56
2023-02-14T12:04:57.538Z,98269.16
2023-02-14T12:07:28.689Z,98263.75
2023-02-14T12:10:18.767Z,98263.13
2023-02-14T12:12:53.204Z,98273.94
2023-02-14T12:15:30.348Z,98265.00
2023-02-14T12:18:06.854Z,98262.72
2023-02-14T12:20:42.917Z,98264.38
2023-02-14T12:23:18.001Z,98266.88
2023-02-14T12:25:50.729Z,98280.19
2023-02-14T12:28:23.569Z,98269.59
2023-02-14T12:30:51.221Z,98273.94
2023-02-14T12:33:20.537Z,98273.31
2023-02-14T12:36:03.786Z,98267.69
2023-02-14T12:38:46.149Z,98273.94
2023-02-14T12:41:25.227Z,98263.97
2023-02-14T12:43:56.487Z,98270.19
2023-02-14T12:46:48.502Z,98269.38
2023-02-14T12:49:38.148Z,98271.25
2023-02-14T12:52:18.625Z,98273.09
2023-02-14T12:55:03.912Z,98278.91
2023-02-14T12:57:39.920Z,98259.81
2023-02-14T13:00:24.780Z,98269.78
2023-02-14T13:03:24.960Z,98273.72
2023-02-14T13:06:02.002Z,98277.06
2023-02-14T13:08:51.735Z,98278.91
2023-02-14T13:11:26.400Z,98287.88
2023-02-14T13:13:59.098Z,98287.88
2023-02-14T13:16:38.133Z,98282.66
2023-02-14T13:19:22.050Z,98288.91
2023-02-14T13:21:50.868Z,98279.34
2023-02-14T13:24:23.004Z,98292.66
2023-02-14T13:26:55.508Z,98284.13
2023-02-14T13:29:25.860Z,98279.16
2023-02-14T13:31:58.430Z,98279.34
2023-02-14T13:34:30.647Z,98276.44
2023-02-14T13:37:00.746Z,98280.81
2023-02-14T13:39:36.249Z,98284.75
2023-02-14T13:42:07.151Z,98288.28
2023-02-14T13:44:45.996Z,98295.53
2023-02-14T13:47:20.296Z,98294.69
2023-02-14T13:49:51.504Z,98292.22
2023-02-14T13:52:42.183Z,98294.50
2023-02-14T13:55:17.092Z,98295.75
2023-02-14T13:57:45.414Z,98292.00
2023-02-14T14:00:40.423Z,98294.06
2023-02-14T14:03:14.317Z,98294.31
2023-02-14T14:06:12.596Z,98295.13
2023-02-14T14:08:46.732Z,98288.69
2023-02-14T14:11:59.169Z,98299.47
2023-02-14T14:14:37.419Z,98296.78
2023-02-14T14:17:24.930Z,98305.31
2023-02-14T14:19:54.282Z,98303.03
2023-02-14T14:22:22.235Z,98297.19
2023-02-14T14:24:55.757Z,98306.53
2023-02-14T14:27:25.918Z,98301.34
2023-02-14T14:29:55.910Z,98303.84
2023-02-14T14:32:28.022Z,98314.88
2023-02-14T14:34:58.661Z,98308.81
2023-02-14T14:37:28.206Z,98301.38
2023-02-14T14:39:57.381Z,98303.41
2023-02-14T14:42:27.427Z,98299.69
2023-02-14T14:44:58.426Z,98302.59
2023-02-14T14:47:28.675Z,98304.03
2023-02-14T14:50:05.189Z,98295.53
2023-02-14T14:52:36.156Z,98303.03
2023-02-14T14:55:05.282Z,98305.63
2023-02-14T14:57:35.508Z,98313.34
2023-02-14T15:00:17.054Z,98307.56
2023-02-14T15:02:56.696Z,98304.25
2023-02-14T15:05:28.354Z,98299.66
2023-02-14T15:07:56.003Z,98301.31
2023-02-14T15:10:27.854Z,98299.47
2023-02-14T15:12:58.717Z,98293.03
2023-02-14T15:15:26.410Z,98299.47
2023-02-14T15:17:55.145Z,98296.16
2023-02-14T15:20:24.074Z,98293.47
2023-02-14T15:22:54.035Z,98290.75
2023-02-14T15:25:23.570Z,98293.22
2023-02-14T15:27:51.481Z,98294.06
2023-02-14T15:30:25.460Z,98293.66
2023-02-14T15:32:54.121Z,98303.00
2023-02-14T15:35:27.312Z,98295.94
2023-02-14T15:37:59.802Z,98299.25
2023-02-14T15:40:30.933Z,98298.44
2023-02-14T15:43:13.142Z,98298.44
2023-02-14T15:45:41.365Z,98306.72
2023-02-14T15:48:16.320Z,98299.25
2023-02-14T15:50:47.233Z,98302.78
2023-02-14T15:53:33.173Z,98302.78
2023-02-14T15:56:06.867Z,98300.94
2023-02-14T15:58:38.093Z,98311.75
2023-02-14T16:01:06.692Z,98300.09
2023-02-14T16:03:39.460Z,98305.50
2023-02-14T16:06:07.510Z,98306.34
2023-02-14T16:08:38.538Z,98310.28
2023-02-14T16:11:13.848Z,98302.19
2023-02-14T16:13:43.351Z,98313.41
2023-02-14T16:16:12.478Z,98305.06
2023-02-14T16:18:40.912Z,98303.22
2023-02-14T16:21:17.638Z,98299.28
2023-02-14T16:23:48.057Z,98301.75
2023-02-14T16:26:15.767Z,98303.41
2023-02-14T16:28:43.604Z,98315.06
2023-02-14T16:31:16.995Z,98316.09
2023-02-14T16:33:44.813Z,98316.91
2023-02-14T16:36:20.718Z,98309.66
2023-02-14T16:38:49.944Z,98311.31
2023-02-14T16:41:20.077Z,98315.06
2023-02-14T16:43:48.539Z,98308.00
2023-02-14T16:46:20.425Z,98313.22
2023-02-14T16:48:48.868Z,98307.81
2023-02-14T16:51:16.918Z,98309.47
2023-02-14T16:53:44.617Z,98317.34
2023-02-14T16:56:18.482Z,98304.88
2023-02-14T16:58:46.686Z,98307.56
2023-02-14T17:01:14.708Z,98311.13
2023-02-14T17:03:42.387Z,98312.16
2023-02-14T17:06:13.544Z,98313.22
2023-02-14T17:08:42.299Z,98312.56
2023-02-14T17:11:10.913Z,98313.81
2023-02-14T17:13:42.159Z,98311.13
2023-02-14T17:16:11.251Z,98314.44
2023-02-14T17:18:40.328Z,98312.13
2023-02-14T17:21:07.911Z,98315.88
2023-02-14T17:23:35.905Z,98318.38
2023-02-14T17:26:03.674Z,98323.78
2023-02-14T17:28:31.255Z,98319.19
2023-02-14T17:31:01.144Z,98325.44
2023-02-14T17:33:29.137Z,98327.09
2023-02-14T17:35:56.752Z,98325.25
2023-02-14T17:38:24.422Z,98323.78
2023-02-14T17:40:51.993Z,98328.94
2023-02-14T17:43:19.488Z,98331.44
2023-02-14T17:45:47.199Z,98336.84
2023-02-14T17:48:16.253Z,98329.78
2023-02-14T17:50:44.535Z,98328.94
2023-02-14T17:53:12.479Z,98333.34
2023-02-14T17:55:40.076Z,98329.78
2023-02-14T17:58:07.776Z,98322.94
2023-02-14T18:00:35.654Z,98325.44
2023-02-14T18:03:03.577Z,98325.44
2023-02-14T18:05:35.680Z,98329.97
2023-02-14T18:08:03.392Z,98328.31
2023-02-14T18:10:30.987Z,98321.06
2023-02-14T18:12:58.632Z,98322.72
2023-02-14T18:15:26.327Z,98330.81
2023-02-14T18:17:54.019Z,98319.00
2023-02-14T18:20:21.615Z,98326.47
2023-02-14T18:22:50.684Z,98330.81
2023-02-14T18:25:18.461Z,98331.88
2023-02-14T18:27:46.014Z,98335.38
2023-02-14T18:30:17.527Z,98331.00
2023-02-14T18:32:45.088Z,98334.53
2023-02-14T18:35:12.674Z,98329.97
2023-02-14T18:37:40.273Z,98336.22
2023-02-14T18:40:11.193Z,98336.00
2023-02-14T18:42:38.793Z,98335.81
2023-02-14T18:45:07.391Z,98337.47
2023-02-14T18:47:34.917Z,98338.31
2023-02-14T18:50:02.525Z,98334.97
2023-02-14T18:52:30.549Z,98334.97
2023-02-14T18:54:58.057Z,98337.66
2023-02-14T18:57:27.037Z,98340.34
2023-02-14T18:59:54.588Z,98337.66
2023-02-14T19:02:22.193Z,98341.19
2023-02-14T19:04:49.811Z,98347.44
2023-02-14T19:07:18.874Z,98345.56
2023-02-14T19:09:46.448Z,98345.56
2023-02-14T19:12:14.041Z,98352.00
2023-02-14T19:14:43.195Z,98353.66
2023-02-14T19:17:10.745Z,98348.25
2023-02-14T19:19:38.336Z,98347.44
2023-02-14T19:22:05.955Z,98352.00
2023-02-14T19:24:33.542Z,98353.84
2023-02-14T19:27:01.132Z,98353.03
2023-02-14T19:29:28.739Z,98353.84
2023-02-14T19:31:57.805Z,98341.19
2023-02-14T19:34:29.204Z,98339.53
2023-02-14T19:36:58.757Z,98345.75
2023-02-14T19:39:26.808Z,98343.06
2023-02-14T19:41:54.322Z,98343.28
2023-02-14T19:44:24.772Z,98344.09
2023-02-14T19:46:53.145Z,98346.16
2023-02-14T19:49:22.093Z,98350.34
2023-02-14T19:51:50.297Z,98347.84
2023-02-14T19:54:18.204Z,98347.84
2023-02-14T19:56:46.865Z,98347.03
2023-02-14T19:59:15.902Z,98342.44
2023-02-14T20:01:45.861Z,98355.13
2023-02-14T20:04:15.622Z,98358.84
2023-02-14T20:06:44.629Z,98356.97
2023-02-14T20:09:12.638Z,98351.75
2023-02-14T20:11:42.045Z,98354.47
2023-02-14T20:14:09.811Z,98349.91
2023-02-14T20:16:37.783Z,98356.16
2023-02-14T20:19:07.644Z,98352.00
2023-02-14T20:21:35.788Z,98354.88
2023-02-14T20:24:05.520Z,98352.00
2023-02-14T20:26:33.506Z,98344.09
2023-02-14T20:29:03.326Z,98351.38
2023-02-14T20:31:31.525Z,98346.78
2023-02-14T20:33:59.146Z,98355.72
2023-02-14T20:36:27.430Z,98352.19
2023-02-14T20:38:55.803Z,98355.91
2023-02-14T20:41:25.521Z,98363.41
2023-02-14T20:43:52.626Z,98354.25
2023-02-14T20:46:20.419Z,98363.16
2023-02-14T20:48:48.538Z,98356.13
2023-02-14T20:51:18.374Z,98354.88
2023-02-14T20:53:45.862Z,98359.22
2023-02-14T20:56:13.977Z,98357.38
2023-02-14T20:58:43.310Z,98370.66
2023-02-14T21:01:12.702Z,98365.47
2023-02-14T21:03:40.947Z,98368.16
2023-02-14T21:06:10.554Z,98356.53
2023-02-14T21:08:38.958Z,98367.31
2023-02-14T21:11:07.526Z,98365.66
2023-02-14T21:13:35.744Z,98369.41
2023-02-14T21:16:06.286Z,98362.34
2023-02-14T21:18:34.683Z,98357.97
2023-02-14T21:21:06.130Z,98362.53
2023-02-14T21:23:34.073Z,98363.38
2023-02-14T21:26:01.687Z,98356.94
2023-02-14T21:28:29.447Z,98351.13
2023-02-14T21:31:06.129Z,98353.59
2023-02-14T21:33:34.020Z,98353.59
2023-02-14T21:36:07.024Z,98361.28
2023-02-14T21:38:35.064Z,98358.78
2023-02-14T21:41:03.373Z,98366.09
2023-02-14T21:43:31.322Z,98365.03
2023-02-14T21:45:58.908Z,98362.72
2023-02-14T21:48:28.237Z,98369.78
2023-02-14T21:50:55.721Z,98370.81
2023-02-14T21:53:23.218Z,98363.56
2023-02-14T21:55:50.780Z,98370.63
2023-02-14T21:58:18.394Z,98368.78
2023-02-14T22:00:46.149Z,98369.78
2023-02-14T22:03:13.801Z,98369.16
2023-02-14T22:05:42.798Z,98366.09
2023-02-14T22:08:10.383Z,98358.78
2023-02-14T22:10:39.024Z,98360.69
2023-02-14T22:13:06.615Z,98363.38
2023-02-14T22:15:34.718Z,98367.94
2023-02-14T22:18:02.320Z,98363.56
2023-02-14T22:20:29.924Z,98366.28
2023-02-14T22:22:58.943Z,98362.72
2023-02-14T22:25:26.474Z,98361.47
2023-02-14T22:27:54.181Z,98348.81
2023-02-14T22:30:21.734Z,98351.94
2023-02-14T22:32:49.309Z,98351.31
2023-02-14T22:35:16.987Z,98343.22
2023-02-14T22:37:45.356Z,98348.81
2023-02-14T22:40:14.441Z,98346.09
2023-02-14T22:42:42.039Z,98341.56
2023-02-14T22:45:10.247Z,98359.00
2023-02-14T22:47:37.807Z,98352.78
2023-02-14T22:50:06.361Z,98349.22
2023-02-14T22:52:34.600Z,98350.06
2023-02-14T22:55:02.155Z,98352.78
2023-02-14T22:57:31.918Z,98349.22
2023-02-14T22:59:59.059Z,98347.78
2023-02-14T23:02:26.618Z,98348.63
2023-02-14T23:04:56.236Z,98342.41
2023-02-14T23:07:24.841Z,98349.66
2023-02-14T23:09:52.360Z,98346.94
2023-02-14T23:12:19.956Z,98345.28
2023-02-14T23:14:48.958Z,98347.38
2023-02-14T23:17:16.536Z,98341.97
2023-02-14T23:19:45.108Z,98340.09
2023-02-14T23:22:14.753Z,98352.34
2023-02-14T23:24:42.973Z,98350.69
2023-02-14T23:27:10.499Z,98345.09
2023-02-14T23:29:38.241Z,98348.81
2023-02-14T23:32:07.813Z,98357.75
2023-02-14T23:34:36.938Z,98361.47
2023-02-14T23:37:04.918Z,98348.19
2023-02-14T23:39:32.613Z,98357.13
2023-02-14T23:42:00.756Z,98354.41
2023-02-14T23:44:28.930Z,98353.56
2023-02-14T23:46:58.669Z,98364.38
2023-02-14T23:49:27.501Z,98354.63
2023-02-14T23:51:55.731Z,98357.31
2023-02-14T23:54:23.927Z,98363.13
2023-02-14T23:56:52.608Z,98364.78
2023-02-14T23:59:21.676Z,98359.81
